sensor_id;sensor_type;location;lat;lon;timestamp;P1;durP1;ratioP1;P2;durP2;ratioP2
34248;SDS011;20508;50.834;3.160;2022-10-16T00:00:09;1.70;;;0.73;;
34248;SDS011;20508;50.834;3.160;2022-10-16T00:02:36;0.88;;;0.68;;
34248;SDS011;20508;50.834;3.160;2022-10-16T00:05:02;1.13;;;0.70;;
34248;SDS011;20508;50.834;3.160;2022-10-16T00:07:29;1.05;;;0.80;;
34248;SDS011;20508;50.834;3.160;2022-10-16T00:09:55;1.58;;;0.90;;
34248;SDS011;20508;50.834;3.160;2022-10-16T00:12:21;0.80;;;0.80;;
34248;SDS011;20508;50.834;3.160;2022-10-16T00:14:47;1.23;;;0.80;;
34248;SDS011;20508;50.834;3.160;2022-10-16T00:17:13;1.70;;;0.70;;
34248;SDS011;20508;50.834;3.160;2022-10-16T00:19:39;0.70;;;0.70;;
34248;SDS011;20508;50.834;3.160;2022-10-16T00:22:06;0.73;;;0.73;;
34248;SDS011;20508;50.834;3.160;2022-10-16T00:24:32;0.75;;;0.73;;
34248;SDS011;20508;50.834;3.160;2022-10-16T00:26:58;0.55;;;0.55;;
34248;SDS011;20508;50.834;3.160;2022-10-16T00:29:24;3.30;;;0.70;;
34248;SDS011;20508;50.834;3.160;2022-10-16T00:31:52;0.75;;;0.60;;
34248;SDS011;20508;50.834;3.160;2022-10-16T00:34:18;1.20;;;0.75;;
34248;SDS011;20508;50.834;3.160;2022-10-16T00:36:47;0.73;;;0.60;;
34248;SDS011;20508;50.834;3.160;2022-10-16T00:39:14;1.00;;;0.70;;
34248;SDS011;20508;50.834;3.160;2022-10-16T00:41:40;2.20;;;0.70;;
34248;SDS011;20508;50.834;3.160;2022-10-16T00:47:32;1.00;;;0.70;;
34248;SDS011;20508;50.834;3.160;2022-10-16T00:50:09;0.75;;;0.65;;
34248;SDS011;20508;50.834;3.160;2022-10-16T00:52:46;1.13;;;0.75;;
34248;SDS011;20508;50.834;3.160;2022-10-16T00:55:15;0.90;;;0.70;;
34248;SDS011;20508;50.834;3.160;2022-10-16T00:57:42;1.33;;;0.70;;
34248;SDS011;20508;50.834;3.160;2022-10-16T01:00:15;1.25;;;0.70;;
34248;SDS011;20508;50.834;3.160;2022-10-16T01:02:43;1.20;;;0.85;;
34248;SDS011;20508;50.834;3.160;2022-10-16T01:05:09;2.25;;;0.73;;
34248;SDS011;20508;50.834;3.160;2022-10-16T01:10:43;1.60;;;0.75;;
34248;SDS011;20508;50.834;3.160;2022-10-16T01:13:15;0.90;;;0.70;;
34248;SDS011;20508;50.834;3.160;2022-10-16T01:18:16;1.25;;;0.70;;
34248;SDS011;20508;50.834;3.160;2022-10-16T01:28:34;1.30;;;0.70;;
34248;SDS011;20508;50.834;3.160;2022-10-16T01:31:14;1.42;;;0.70;;
34248;SDS011;20508;50.834;3.160;2022-10-16T01:33:45;1.38;;;0.88;;
34248;SDS011;20508;50.834;3.160;2022-10-16T01:36:18;2.03;;;0.80;;
34248;SDS011;20508;50.834;3.160;2022-10-16T01:38:51;1.10;;;0.80;;
34248;SDS011;20508;50.834;3.160;2022-10-16T01:41:21;1.65;;;0.70;;
34248;SDS011;20508;50.834;3.160;2022-10-16T01:44:10;1.30;;;0.70;;
34248;SDS011;20508;50.834;3.160;2022-10-16T01:46:42;1.00;;;0.80;;
34248;SDS011;20508;50.834;3.160;2022-10-16T01:49:14;1.55;;;0.90;;
34248;SDS011;20508;50.834;3.160;2022-10-16T01:51:41;1.63;;;0.63;;
34248;SDS011;20508;50.834;3.160;2022-10-16T01:54:11;1.65;;;0.90;;
34248;SDS011;20508;50.834;3.160;2022-10-16T01:56:39;1.40;;;0.77;;
34248;SDS011;20508;50.834;3.160;2022-10-16T01:59:11;2.97;;;0.77;;
34248;SDS011;20508;50.834;3.160;2022-10-16T02:01:42;1.15;;;0.73;;
34248;SDS011;20508;50.834;3.160;2022-10-16T02:04:22;0.90;;;0.70;;
34248;SDS011;20508;50.834;3.160;2022-10-16T02:06:54;0.95;;;0.70;;
34248;SDS011;20508;50.834;3.160;2022-10-16T02:09:20;1.25;;;0.60;;
34248;SDS011;20508;50.834;3.160;2022-10-16T02:11:47;1.45;;;0.60;;
34248;SDS011;20508;50.834;3.160;2022-10-16T02:14:14;1.40;;;0.80;;
34248;SDS011;20508;50.834;3.160;2022-10-16T02:16:42;1.42;;;0.70;;
34248;SDS011;20508;50.834;3.160;2022-10-16T02:19:10;1.90;;;0.70;;
34248;SDS011;20508;50.834;3.160;2022-10-16T02:21:43;0.73;;;0.70;;
34248;SDS011;20508;50.834;3.160;2022-10-16T02:26:57;1.98;;;0.73;;
34248;SDS011;20508;50.834;3.160;2022-10-16T02:29:24;1.52;;;0.80;;
34248;SDS011;20508;50.834;3.160;2022-10-16T02:31:56;3.60;;;1.00;;
34248;SDS011;20508;50.834;3.160;2022-10-16T02:34:26;1.80;;;0.85;;
34248;SDS011;20508;50.834;3.160;2022-10-16T02:36:54;3.17;;;0.82;;
34248;SDS011;20508;50.834;3.160;2022-10-16T02:39:21;1.98;;;0.80;;
34248;SDS011;20508;50.834;3.160;2022-10-16T02:41:48;2.67;;;0.80;;
34248;SDS011;20508;50.834;3.160;2022-10-16T02:44:15;1.60;;;0.75;;
34248;SDS011;20508;50.834;3.160;2022-10-16T02:46:41;1.55;;;0.98;;
34248;SDS011;20508;50.834;3.160;2022-10-16T02:49:07;1.33;;;0.80;;
34248;SDS011;20508;50.834;3.160;2022-10-16T02:51:33;1.95;;;1.00;;
34248;SDS011;20508;50.834;3.160;2022-10-16T02:53:59;1.63;;;0.90;;
34248;SDS011;20508;50.834;3.160;2022-10-16T02:56:25;1.92;;;0.80;;
34248;SDS011;20508;50.834;3.160;2022-10-16T02:58:54;1.65;;;0.82;;
34248;SDS011;20508;50.834;3.160;2022-10-16T03:01:20;1.90;;;0.75;;
34248;SDS011;20508;50.834;3.160;2022-10-16T03:03:49;2.15;;;0.80;;
34248;SDS011;20508;50.834;3.160;2022-10-16T03:06:15;3.72;;;0.80;;
34248;SDS011;20508;50.834;3.160;2022-10-16T03:08:41;1.85;;;0.88;;
34248;SDS011;20508;50.834;3.160;2022-10-16T03:11:08;1.23;;;0.82;;
34248;SDS011;20508;50.834;3.160;2022-10-16T03:13:34;1.65;;;1.15;;
34248;SDS011;20508;50.834;3.160;2022-10-16T03:16:00;2.40;;;0.90;;
34248;SDS011;20508;50.834;3.160;2022-10-16T03:18:27;1.35;;;0.82;;
34248;SDS011;20508;50.834;3.160;2022-10-16T03:20:53;1.67;;;0.80;;
34248;SDS011;20508;50.834;3.160;2022-10-16T03:23:23;2.13;;;0.90;;
34248;SDS011;20508;50.834;3.160;2022-10-16T03:25:49;1.77;;;0.90;;
34248;SDS011;20508;50.834;3.160;2022-10-16T03:28:17;1.77;;;0.90;;
34248;SDS011;20508;50.834;3.160;2022-10-16T03:30:43;1.17;;;0.85;;
34248;SDS011;20508;50.834;3.160;2022-10-16T03:33:10;2.53;;;0.90;;
34248;SDS011;20508;50.834;3.160;2022-10-16T03:35:36;1.65;;;1.00;;
34248;SDS011;20508;50.834;3.160;2022-10-16T03:38:02;1.27;;;0.93;;
34248;SDS011;20508;50.834;3.160;2022-10-16T03:40:28;1.55;;;1.10;;
34248;SDS011;20508;50.834;3.160;2022-10-16T03:42:56;2.50;;;0.88;;
34248;SDS011;20508;50.834;3.160;2022-10-16T03:45:23;1.63;;;0.90;;
34248;SDS011;20508;50.834;3.160;2022-10-16T03:47:49;2.00;;;0.90;;
34248;SDS011;20508;50.834;3.160;2022-10-16T03:50:16;1.52;;;1.10;;
34248;SDS011;20508;50.834;3.160;2022-10-16T03:52:42;1.35;;;1.00;;
34248;SDS011;20508;50.834;3.160;2022-10-16T03:55:08;1.17;;;0.98;;
34248;SDS011;20508;50.834;3.160;2022-10-16T03:57:35;1.92;;;1.00;;
34248;SDS011;20508;50.834;3.160;2022-10-16T04:00:01;1.25;;;0.85;;
34248;SDS011;20508;50.834;3.160;2022-10-16T04:02:28;1.30;;;0.90;;
34248;SDS011;20508;50.834;3.160;2022-10-16T04:04:57;1.23;;;0.88;;
34248;SDS011;20508;50.834;3.160;2022-10-16T04:07:23;2.30;;;1.08;;
34248;SDS011;20508;50.834;3.160;2022-10-16T04:09:49;1.70;;;1.00;;
34248;SDS011;20508;50.834;3.160;2022-10-16T04:12:17;2.00;;;1.00;;
34248;SDS011;20508;50.834;3.160;2022-10-16T04:14:43;1.65;;;0.80;;
34248;SDS011;20508;50.834;3.160;2022-10-16T04:17:09;2.08;;;1.10;;
34248;SDS011;20508;50.834;3.160;2022-10-16T04:19:35;2.38;;;0.93;;
34248;SDS011;20508;50.834;3.160;2022-10-16T04:22:02;1.75;;;0.80;;
34248;SDS011;20508;50.834;3.160;2022-10-16T04:24:28;3.60;;;1.38;;
34248;SDS011;20508;50.834;3.160;2022-10-16T04:26:54;1.42;;;1.00;;
34248;SDS011;20508;50.834;3.160;2022-10-16T04:29:20;1.50;;;0.93;;
34248;SDS011;20508;50.834;3.160;2022-10-16T04:31:47;2.70;;;0.82;;
34248;SDS011;20508;50.834;3.160;2022-10-16T04:34:13;1.38;;;0.85;;
34248;SDS011;20508;50.834;3.160;2022-10-16T04:36:39;2.45;;;1.00;;
34248;SDS011;20508;50.834;3.160;2022-10-16T04:39:05;1.88;;;0.95;;
34248;SDS011;20508;50.834;3.160;2022-10-16T04:41:31;1.38;;;0.90;;
34248;SDS011;20508;50.834;3.160;2022-10-16T04:43:58;1.17;;;0.98;;
34248;SDS011;20508;50.834;3.160;2022-10-16T04:46:24;1.55;;;0.98;;
34248;SDS011;20508;50.834;3.160;2022-10-16T04:48:53;1.60;;;1.00;;
34248;SDS011;20508;50.834;3.160;2022-10-16T04:51:19;2.22;;;1.00;;
34248;SDS011;20508;50.834;3.160;2022-10-16T04:53:45;2.72;;;0.90;;
34248;SDS011;20508;50.834;3.160;2022-10-16T04:56:11;1.10;;;1.00;;
34248;SDS011;20508;50.834;3.160;2022-10-16T04:58:37;3.45;;;1.05;;
34248;SDS011;20508;50.834;3.160;2022-10-16T05:01:03;1.77;;;1.02;;
34248;SDS011;20508;50.834;3.160;2022-10-16T05:03:29;1.98;;;0.90;;
34248;SDS011;20508;50.834;3.160;2022-10-16T05:05:56;2.28;;;0.93;;
34248;SDS011;20508;50.834;3.160;2022-10-16T05:08:29;3.10;;;1.00;;
34248;SDS011;20508;50.834;3.160;2022-10-16T05:10:56;1.88;;;1.00;;
34248;SDS011;20508;50.834;3.160;2022-10-16T05:13:22;2.05;;;1.00;;
34248;SDS011;20508;50.834;3.160;2022-10-16T05:15:48;3.53;;;1.00;;
34248;SDS011;20508;50.834;3.160;2022-10-16T05:18:15;2.00;;;0.80;;
34248;SDS011;20508;50.834;3.160;2022-10-16T05:20:42;1.65;;;0.80;;
34248;SDS011;20508;50.834;3.160;2022-10-16T05:23:09;2.95;;;1.38;;
34248;SDS011;20508;50.834;3.160;2022-10-16T05:25:38;1.70;;;1.00;;
34248;SDS011;20508;50.834;3.160;2022-10-16T05:28:07;8.60;;;1.08;;
34248;SDS011;20508;50.834;3.160;2022-10-16T05:30:33;2.45;;;0.82;;
34248;SDS011;20508;50.834;3.160;2022-10-16T05:33:04;1.83;;;0.90;;
34248;SDS011;20508;50.834;3.160;2022-10-16T05:35:30;2.35;;;1.13;;
34248;SDS011;20508;50.834;3.160;2022-10-16T05:37:57;2.17;;;1.25;;
34248;SDS011;20508;50.834;3.160;2022-10-16T05:40:23;2.83;;;0.80;;
34248;SDS011;20508;50.834;3.160;2022-10-16T05:42:49;2.38;;;0.95;;
34248;SDS011;20508;50.834;3.160;2022-10-16T05:45:15;1.70;;;1.00;;
34248;SDS011;20508;50.834;3.160;2022-10-16T05:47:41;2.33;;;0.80;;
34248;SDS011;20508;50.834;3.160;2022-10-16T05:50:08;2.08;;;0.80;;
34248;SDS011;20508;50.834;3.160;2022-10-16T05:52:34;2.10;;;0.98;;
34248;SDS011;20508;50.834;3.160;2022-10-16T05:55:00;1.45;;;0.80;;
34248;SDS011;20508;50.834;3.160;2022-10-16T05:57:28;2.38;;;0.80;;
34248;SDS011;20508;50.834;3.160;2022-10-16T05:59:55;2.45;;;1.08;;
34248;SDS011;20508;50.834;3.160;2022-10-16T06:02:22;2.25;;;0.85;;
34248;SDS011;20508;50.834;3.160;2022-10-16T06:04:48;2.40;;;0.80;;
34248;SDS011;20508;50.834;3.160;2022-10-16T06:07:16;1.30;;;0.80;;
34248;SDS011;20508;50.834;3.160;2022-10-16T06:09:42;1.38;;;0.90;;
34248;SDS011;20508;50.834;3.160;2022-10-16T06:12:08;1.02;;;0.90;;
34248;SDS011;20508;50.834;3.160;2022-10-16T06:14:34;2.95;;;0.90;;
34248;SDS011;20508;50.834;3.160;2022-10-16T06:17:04;1.60;;;0.90;;
34248;SDS011;20508;50.834;3.160;2022-10-16T06:19:30;1.65;;;0.80;;
34248;SDS011;20508;50.834;3.160;2022-10-16T06:21:56;2.45;;;0.93;;
34248;SDS011;20508;50.834;3.160;2022-10-16T06:24:23;2.17;;;0.70;;
34248;SDS011;20508;50.834;3.160;2022-10-16T06:26:53;1.27;;;0.90;;
34248;SDS011;20508;50.834;3.160;2022-10-16T06:29:19;2.88;;;0.90;;
34248;SDS011;20508;50.834;3.160;2022-10-16T06:31:45;1.42;;;0.73;;
34248;SDS011;20508;50.834;3.160;2022-10-16T06:34:11;1.88;;;0.80;;
34248;SDS011;20508;50.834;3.160;2022-10-16T06:36:38;1.42;;;0.85;;
34248;SDS011;20508;50.834;3.160;2022-10-16T06:39:04;1.35;;;0.75;;
34248;SDS011;20508;50.834;3.160;2022-10-16T06:41:32;3.00;;;1.00;;
34248;SDS011;20508;50.834;3.160;2022-10-16T06:43:59;2.70;;;0.70;;
34248;SDS011;20508;50.834;3.160;2022-10-16T06:46:26;2.50;;;1.00;;
34248;SDS011;20508;50.834;3.160;2022-10-16T06:48:53;3.28;;;1.00;;
34248;SDS011;20508;50.834;3.160;2022-10-16T06:51:23;1.92;;;1.10;;
34248;SDS011;20508;50.834;3.160;2022-10-16T06:53:50;1.90;;;1.00;;
34248;SDS011;20508;50.834;3.160;2022-10-16T06:56:18;4.70;;;0.82;;
34248;SDS011;20508;50.834;3.160;2022-10-16T06:58:49;1.42;;;1.05;;
34248;SDS011;20508;50.834;3.160;2022-10-16T07:01:16;5.10;;;0.90;;
34248;SDS011;20508;50.834;3.160;2022-10-16T07:03:45;4.75;;;1.10;;
34248;SDS011;20508;50.834;3.160;2022-10-16T07:06:14;1.83;;;1.00;;
34248;SDS011;20508;50.834;3.160;2022-10-16T07:08:44;2.90;;;1.30;;
34248;SDS011;20508;50.834;3.160;2022-10-16T07:11:12;2.63;;;0.93;;
34248;SDS011;20508;50.834;3.160;2022-10-16T07:13:44;4.38;;;1.33;;
34248;SDS011;20508;50.834;3.160;2022-10-16T07:16:14;4.95;;;1.55;;
34248;SDS011;20508;50.834;3.160;2022-10-16T07:18:43;1.80;;;1.00;;
34248;SDS011;20508;50.834;3.160;2022-10-16T07:21:16;3.42;;;1.35;;
34248;SDS011;20508;50.834;3.160;2022-10-16T07:23:45;2.25;;;1.10;;
34248;SDS011;20508;50.834;3.160;2022-10-16T07:26:15;3.50;;;1.10;;
34248;SDS011;20508;50.834;3.160;2022-10-16T07:28:42;1.88;;;1.20;;
34248;SDS011;20508;50.834;3.160;2022-10-16T07:31:10;2.20;;;1.13;;
34248;SDS011;20508;50.834;3.160;2022-10-16T07:33:39;2.33;;;1.20;;
34248;SDS011;20508;50.834;3.160;2022-10-16T07:36:07;3.35;;;1.20;;
34248;SDS011;20508;50.834;3.160;2022-10-16T07:38:33;3.78;;;1.20;;
34248;SDS011;20508;50.834;3.160;2022-10-16T07:41:00;2.47;;;1.10;;
34248;SDS011;20508;50.834;3.160;2022-10-16T07:43:29;3.22;;;1.30;;
34248;SDS011;20508;50.834;3.160;2022-10-16T07:45:55;2.63;;;1.10;;
34248;SDS011;20508;50.834;3.160;2022-10-16T07:48:22;2.75;;;1.23;;
34248;SDS011;20508;50.834;3.160;2022-10-16T07:50:50;1.48;;;1.05;;
34248;SDS011;20508;50.834;3.160;2022-10-16T07:53:16;2.33;;;1.27;;
34248;SDS011;20508;50.834;3.160;2022-10-16T07:55:42;3.95;;;1.60;;
34248;SDS011;20508;50.834;3.160;2022-10-16T07:58:08;3.22;;;1.20;;
34248;SDS011;20508;50.834;3.160;2022-10-16T08:00:35;2.05;;;1.10;;
34248;SDS011;20508;50.834;3.160;2022-10-16T08:05:33;2.47;;;1.30;;
34248;SDS011;20508;50.834;3.160;2022-10-16T08:08:02;2.88;;;1.30;;
34248;SDS011;20508;50.834;3.160;2022-10-16T08:10:28;2.35;;;1.25;;
34248;SDS011;20508;50.834;3.160;2022-10-16T08:12:54;4.78;;;1.50;;
34248;SDS011;20508;50.834;3.160;2022-10-16T08:15:21;3.15;;;1.30;;
34248;SDS011;20508;50.834;3.160;2022-10-16T08:17:56;3.65;;;1.38;;
34248;SDS011;20508;50.834;3.160;2022-10-16T08:20:24;4.85;;;1.50;;
34248;SDS011;20508;50.834;3.160;2022-10-16T08:22:51;4.22;;;1.20;;
34248;SDS011;20508;50.834;3.160;2022-10-16T08:25:20;2.05;;;1.30;;
34248;SDS011;20508;50.834;3.160;2022-10-16T08:27:47;3.10;;;1.40;;
34248;SDS011;20508;50.834;3.160;2022-10-16T08:30:14;2.60;;;1.42;;
34248;SDS011;20508;50.834;3.160;2022-10-16T08:32:45;4.30;;;1.55;;
34248;SDS011;20508;50.834;3.160;2022-10-16T08:35:11;2.60;;;1.25;;
34248;SDS011;20508;50.834;3.160;2022-10-16T08:37:40;3.95;;;1.27;;
34248;SDS011;20508;50.834;3.160;2022-10-16T08:40:16;3.60;;;1.30;;
34248;SDS011;20508;50.834;3.160;2022-10-16T08:45:55;5.00;;;1.42;;
34248;SDS011;20508;50.834;3.160;2022-10-16T08:49:01;2.78;;;1.25;;
34248;SDS011;20508;50.834;3.160;2022-10-16T08:51:32;2.13;;;1.23;;
34248;SDS011;20508;50.834;3.160;2022-10-16T08:54:03;2.65;;;1.23;;
34248;SDS011;20508;50.834;3.160;2022-10-16T08:56:30;2.88;;;1.15;;
34248;SDS011;20508;50.834;3.160;2022-10-16T08:58:58;4.50;;;1.42;;
34248;SDS011;20508;50.834;3.160;2022-10-16T09:01:29;4.18;;;1.55;;
34248;SDS011;20508;50.834;3.160;2022-10-16T09:15:32;3.03;;;1.40;;
34248;SDS011;20508;50.834;3.160;2022-10-16T09:23:36;4.63;;;1.42;;
34248;SDS011;20508;50.834;3.160;2022-10-16T09:26:03;4.03;;;1.67;;
34248;SDS011;20508;50.834;3.160;2022-10-16T09:28:31;3.90;;;1.70;;
34248;SDS011;20508;50.834;3.160;2022-10-16T09:30:57;2.78;;;1.38;;
34248;SDS011;20508;50.834;3.160;2022-10-16T09:33:25;3.17;;;1.55;;
34248;SDS011;20508;50.834;3.160;2022-10-16T09:35:58;4.63;;;1.85;;
34248;SDS011;20508;50.834;3.160;2022-10-16T09:38:26;3.42;;;1.60;;
34248;SDS011;20508;50.834;3.160;2022-10-16T09:40:54;3.45;;;1.48;;
34248;SDS011;20508;50.834;3.160;2022-10-16T09:43:25;3.30;;;1.60;;
34248;SDS011;20508;50.834;3.160;2022-10-16T09:46:01;3.70;;;1.60;;
34248;SDS011;20508;50.834;3.160;2022-10-16T09:48:44;3.30;;;1.73;;
34248;SDS011;20508;50.834;3.160;2022-10-16T09:56:40;5.38;;;1.63;;
34248;SDS011;20508;50.834;3.160;2022-10-16T09:59:13;3.08;;;1.85;;
34248;SDS011;20508;50.834;3.160;2022-10-16T10:01:44;2.85;;;1.60;;
34248;SDS011;20508;50.834;3.160;2022-10-16T10:04:17;4.25;;;1.50;;
34248;SDS011;20508;50.834;3.160;2022-10-16T10:06:51;3.78;;;1.90;;
34248;SDS011;20508;50.834;3.160;2022-10-16T10:09:42;3.88;;;1.77;;
34248;SDS011;20508;50.834;3.160;2022-10-16T10:12:27;5.45;;;1.70;;
34248;SDS011;20508;50.834;3.160;2022-10-16T10:15:04;3.90;;;1.95;;
34248;SDS011;20508;50.834;3.160;2022-10-16T10:17:31;2.83;;;1.75;;
34248;SDS011;20508;50.834;3.160;2022-10-16T10:19:58;3.83;;;1.88;;
34248;SDS011;20508;50.834;3.160;2022-10-16T10:36:04;5.25;;;1.60;;
34248;SDS011;20508;50.834;3.160;2022-10-16T10:38:43;2.75;;;1.60;;
34248;SDS011;20508;50.834;3.160;2022-10-16T10:47:01;3.22;;;1.63;;
34248;SDS011;20508;50.834;3.160;2022-10-16T10:49:52;4.28;;;1.65;;
34248;SDS011;20508;50.834;3.160;2022-10-16T10:55:33;4.20;;;1.40;;
34248;SDS011;20508;50.834;3.160;2022-10-16T11:06:00;3.88;;;1.25;;
34248;SDS011;20508;50.834;3.160;2022-10-16T11:09:02;7.07;;;1.58;;
34248;SDS011;20508;50.834;3.160;2022-10-16T11:11:40;3.63;;;1.40;;
34248;SDS011;20508;50.834;3.160;2022-10-16T11:14:23;5.53;;;1.45;;
34248;SDS011;20508;50.834;3.160;2022-10-16T11:17:22;5.30;;;1.55;;
34248;SDS011;20508;50.834;3.160;2022-10-16T11:19:58;4.63;;;1.33;;
34248;SDS011;20508;50.834;3.160;2022-10-16T11:22:32;4.32;;;1.17;;
34248;SDS011;20508;50.834;3.160;2022-10-16T11:27:47;6.68;;;1.30;;
34248;SDS011;20508;50.834;3.160;2022-10-16T11:30:22;3.28;;;1.30;;
34248;SDS011;20508;50.834;3.160;2022-10-16T11:32:56;4.35;;;1.45;;
34248;SDS011;20508;50.834;3.160;2022-10-16T11:38:03;5.45;;;1.55;;
34248;SDS011;20508;50.834;3.160;2022-10-16T11:40:41;4.88;;;1.40;;
34248;SDS011;20508;50.834;3.160;2022-10-16T11:43:24;4.47;;;1.17;;
34248;SDS011;20508;50.834;3.160;2022-10-16T11:46:03;4.93;;;1.70;;
34248;SDS011;20508;50.834;3.160;2022-10-16T11:48:38;2.83;;;1.17;;
34248;SDS011;20508;50.834;3.160;2022-10-16T11:51:15;2.58;;;1.00;;
34248;SDS011;20508;50.834;3.160;2022-10-16T11:54:37;3.97;;;1.63;;
34248;SDS011;20508;50.834;3.160;2022-10-16T11:56:46;4.93;;;1.23;;
34248;SDS011;20508;50.834;3.160;2022-10-16T11:59:22;4.22;;;1.33;;
34248;SDS011;20508;50.834;3.160;2022-10-16T12:02:27;7.97;;;1.77;;
34248;SDS011;20508;50.834;3.160;2022-10-16T12:10:29;4.22;;;1.38;;
34248;SDS011;20508;50.834;3.160;2022-10-16T12:12:57;4.97;;;1.60;;
34248;SDS011;20508;50.834;3.160;2022-10-16T12:15:30;2.22;;;1.10;;
34248;SDS011;20508;50.834;3.160;2022-10-16T12:17:58;5.13;;;1.50;;
34248;SDS011;20508;50.834;3.160;2022-10-16T12:20:29;3.72;;;1.17;;
34248;SDS011;20508;50.834;3.160;2022-10-16T12:22:58;4.30;;;1.30;;
34248;SDS011;20508;50.834;3.160;2022-10-16T12:25:31;2.80;;;1.00;;
34248;SDS011;20508;50.834;3.160;2022-10-16T12:28:07;4.80;;;1.00;;
34248;SDS011;20508;50.834;3.160;2022-10-16T12:30:52;4.22;;;1.30;;
34248;SDS011;20508;50.834;3.160;2022-10-16T12:33:24;4.20;;;1.10;;
34248;SDS011;20508;50.834;3.160;2022-10-16T12:35:55;3.17;;;1.20;;
34248;SDS011;20508;50.834;3.160;2022-10-16T12:38:27;4.47;;;1.30;;
34248;SDS011;20508;50.834;3.160;2022-10-16T12:41:00;3.40;;;1.08;;
34248;SDS011;20508;50.834;3.160;2022-10-16T12:46:05;4.13;;;1.63;;
34248;SDS011;20508;50.834;3.160;2022-10-16T12:48:45;4.80;;;1.20;;
34248;SDS011;20508;50.834;3.160;2022-10-16T12:53:58;4.10;;;1.38;;
34248;SDS011;20508;50.834;3.160;2022-10-16T12:59:19;4.57;;;1.27;;
34248;SDS011;20508;50.834;3.160;2022-10-16T13:11:05;2.03;;;1.20;;
34248;SDS011;20508;50.834;3.160;2022-10-16T13:22:08;4.20;;;1.08;;
34248;SDS011;20508;50.834;3.160;2022-10-16T13:27:45;3.55;;;0.98;;
34248;SDS011;20508;50.834;3.160;2022-10-16T13:30:25;3.58;;;1.10;;
34248;SDS011;20508;50.834;3.160;2022-10-16T13:33:13;3.92;;;0.90;;
34248;SDS011;20508;50.834;3.160;2022-10-16T13:35:48;3.45;;;0.95;;
34248;SDS011;20508;50.834;3.160;2022-10-16T13:38:26;3.92;;;1.10;;
34248;SDS011;20508;50.834;3.160;2022-10-16T13:40:57;2.72;;;1.10;;
34248;SDS011;20508;50.834;3.160;2022-10-16T13:43:28;1.42;;;0.60;;
34248;SDS011;20508;50.834;3.160;2022-10-16T13:45:58;4.90;;;1.08;;
34248;SDS011;20508;50.834;3.160;2022-10-16T13:48:27;2.25;;;0.82;;
34248;SDS011;20508;50.834;3.160;2022-10-16T13:51:01;2.38;;;0.80;;
34248;SDS011;20508;50.834;3.160;2022-10-16T13:53:47;3.20;;;0.80;;
34248;SDS011;20508;50.834;3.160;2022-10-16T13:56:15;1.50;;;0.70;;
34248;SDS011;20508;50.834;3.160;2022-10-16T13:58:43;1.40;;;0.75;;
34248;SDS011;20508;50.834;3.160;2022-10-16T14:01:20;2.75;;;0.80;;
34248;SDS011;20508;50.834;3.160;2022-10-16T14:03:51;1.83;;;0.80;;
34248;SDS011;20508;50.834;3.160;2022-10-16T14:06:21;2.63;;;0.80;;
34248;SDS011;20508;50.834;3.160;2022-10-16T14:08:58;1.25;;;0.60;;
34248;SDS011;20508;50.834;3.160;2022-10-16T14:11:27;2.08;;;0.65;;
34248;SDS011;20508;50.834;3.160;2022-10-16T14:13:54;2.08;;;0.88;;
34248;SDS011;20508;50.834;3.160;2022-10-16T14:16:21;1.20;;;0.80;;
34248;SDS011;20508;50.834;3.160;2022-10-16T14:19:00;1.48;;;0.68;;
34248;SDS011;20508;50.834;3.160;2022-10-16T14:21:29;4.10;;;1.25;;
34248;SDS011;20508;50.834;3.160;2022-10-16T14:23:57;3.92;;;1.08;;
34248;SDS011;20508;50.834;3.160;2022-10-16T14:26:25;2.33;;;0.82;;
34248;SDS011;20508;50.834;3.160;2022-10-16T14:29:15;2.85;;;0.90;;
34248;SDS011;20508;50.834;3.160;2022-10-16T14:31:54;3.70;;;1.15;;
34248;SDS011;20508;50.834;3.160;2022-10-16T14:34:32;10.27;;;1.02;;
34248;SDS011;20508;50.834;3.160;2022-10-16T14:37:26;2.97;;;0.85;;
34248;SDS011;20508;50.834;3.160;2022-10-16T14:39:55;2.28;;;0.75;;
34248;SDS011;20508;50.834;3.160;2022-10-16T14:42:23;2.45;;;1.10;;
34248;SDS011;20508;50.834;3.160;2022-10-16T14:44:51;4.53;;;1.05;;
34248;SDS011;20508;50.834;3.160;2022-10-16T14:47:19;4.07;;;1.17;;
34248;SDS011;20508;50.834;3.160;2022-10-16T14:49:51;3.70;;;1.02;;
34248;SDS011;20508;50.834;3.160;2022-10-16T14:52:24;3.97;;;1.10;;
34248;SDS011;20508;50.834;3.160;2022-10-16T14:54:50;5.40;;;0.90;;
34248;SDS011;20508;50.834;3.160;2022-10-16T14:57:22;4.88;;;1.10;;
34248;SDS011;20508;50.834;3.160;2022-10-16T15:00:02;2.22;;;0.90;;
34248;SDS011;20508;50.834;3.160;2022-10-16T15:02:35;5.57;;;1.15;;
34248;SDS011;20508;50.834;3.160;2022-10-16T15:05:10;3.05;;;1.00;;
34248;SDS011;20508;50.834;3.160;2022-10-16T15:07:37;4.70;;;1.10;;
34248;SDS011;20508;50.834;3.160;2022-10-16T15:10:03;2.47;;;1.20;;
34248;SDS011;20508;50.834;3.160;2022-10-16T15:12:30;2.75;;;1.25;;
34248;SDS011;20508;50.834;3.160;2022-10-16T15:14:56;6.07;;;1.30;;
34248;SDS011;20508;50.834;3.160;2022-10-16T15:17:22;3.45;;;1.10;;
34248;SDS011;20508;50.834;3.160;2022-10-16T15:19:48;2.60;;;1.02;;
34248;SDS011;20508;50.834;3.160;2022-10-16T15:22:17;4.75;;;1.10;;
34248;SDS011;20508;50.834;3.160;2022-10-16T15:24:52;4.25;;;1.27;;
34248;SDS011;20508;50.834;3.160;2022-10-16T15:27:18;1.83;;;0.90;;
34248;SDS011;20508;50.834;3.160;2022-10-16T15:29:44;1.13;;;1.00;;
34248;SDS011;20508;50.834;3.160;2022-10-16T15:32:10;3.15;;;0.90;;
34248;SDS011;20508;50.834;3.160;2022-10-16T15:34:36;2.40;;;1.13;;
34248;SDS011;20508;50.834;3.160;2022-10-16T15:37:03;1.63;;;1.20;;
34248;SDS011;20508;50.834;3.160;2022-10-16T15:39:29;1.42;;;1.20;;
34248;SDS011;20508;50.834;3.160;2022-10-16T15:41:57;3.45;;;1.30;;
34248;SDS011;20508;50.834;3.160;2022-10-16T15:44:23;4.07;;;1.60;;
34248;SDS011;20508;50.834;3.160;2022-10-16T15:46:54;2.15;;;1.40;;
34248;SDS011;20508;50.834;3.160;2022-10-16T15:49:21;2.65;;;1.52;;
34248;SDS011;20508;50.834;3.160;2022-10-16T15:51:47;6.93;;;1.90;;
34248;SDS011;20508;50.834;3.160;2022-10-16T15:54:22;3.25;;;1.83;;
34248;SDS011;20508;50.834;3.160;2022-10-16T15:56:48;2.95;;;1.40;;
34248;SDS011;20508;50.834;3.160;2022-10-16T15:59:15;1.65;;;1.40;;
34248;SDS011;20508;50.834;3.160;2022-10-16T16:01:41;3.42;;;1.63;;
34248;SDS011;20508;50.834;3.160;2022-10-16T16:04:10;2.15;;;1.80;;
34248;SDS011;20508;50.834;3.160;2022-10-16T16:06:39;3.90;;;1.63;;
34248;SDS011;20508;50.834;3.160;2022-10-16T16:09:09;1.75;;;1.60;;
34248;SDS011;20508;50.834;3.160;2022-10-16T16:11:36;5.35;;;1.85;;
34248;SDS011;20508;50.834;3.160;2022-10-16T16:14:04;4.20;;;1.45;;
34248;SDS011;20508;50.834;3.160;2022-10-16T16:16:31;4.05;;;1.63;;
34248;SDS011;20508;50.834;3.160;2022-10-16T16:19:03;3.75;;;1.70;;
34248;SDS011;20508;50.834;3.160;2022-10-16T16:21:35;3.30;;;1.90;;
34248;SDS011;20508;50.834;3.160;2022-10-16T16:24:01;3.42;;;1.75;;
34248;SDS011;20508;50.834;3.160;2022-10-16T16:26:33;3.58;;;1.48;;
34248;SDS011;20508;50.834;3.160;2022-10-16T16:29:02;2.90;;;2.03;;
34248;SDS011;20508;50.834;3.160;2022-10-16T16:31:29;2.70;;;1.80;;
34248;SDS011;20508;50.834;3.160;2022-10-16T16:33:59;2.85;;;1.70;;
34248;SDS011;20508;50.834;3.160;2022-10-16T16:36:25;2.15;;;1.30;;
34248;SDS011;20508;50.834;3.160;2022-10-16T16:38:51;2.33;;;1.83;;
34248;SDS011;20508;50.834;3.160;2022-10-16T16:41:19;3.08;;;1.73;;
34248;SDS011;20508;50.834;3.160;2022-10-16T16:43:46;2.03;;;1.70;;
34248;SDS011;20508;50.834;3.160;2022-10-16T16:46:13;5.47;;;2.45;;
34248;SDS011;20508;50.834;3.160;2022-10-16T16:48:40;3.25;;;1.75;;
34248;SDS011;20508;50.834;3.160;2022-10-16T16:51:10;3.30;;;1.77;;
34248;SDS011;20508;50.834;3.160;2022-10-16T16:53:47;2.03;;;1.60;;
34248;SDS011;20508;50.834;3.160;2022-10-16T16:56:15;2.83;;;1.77;;
34248;SDS011;20508;50.834;3.160;2022-10-16T16:58:44;3.25;;;1.95;;
34248;SDS011;20508;50.834;3.160;2022-10-16T17:01:10;2.97;;;1.95;;